Indian Springs, Nevada Weather observations

Data are for observation ending at time listed.
 Day   Time    Ave.   Ave.  Ave.  Vector   Max.   Stn.    Total    Solar   Ave.  
  of    of     Air    Rel.  Wind   Wind    Wind   Baro.  Precip.   Rad.    Soil  
Year   Day     Temp.  Hum.  Speed  Dir.    Gust   Pres.                    Temp. 
2016   (PST)    F      %     mph   deg.    mph     mb.     in.     W/m2     F   
------------------------------------------------------------------------------
 344   11:40   44.4    24    1.5   328      3.1   913.2    0.00     247    42.2
 344   11:50   45.1    23    1.7   337      3.0   913.2    0.00     330    42.4
 344   12:00   45.6    22    1.5   330      3.5   913.0    0.00     293    42.5
 344   12:10   45.8    22    1.5   355      3.2   913.1    0.00     361    42.7
 344   12:20   46.6    21    1.7    19      3.4   913.0    0.00     459    42.9
 344   12:30   47.6    21    0.9   309      2.9   912.9    0.00     424    43.1
 344   12:40   48.8    20    1.1    92      2.4   912.9    0.00     255    43.3
 344   12:50   48.4    20    1.1    22      3.5   912.7    0.00     201    43.6
 344   13:00   48.4    20    2.2    16      3.8   912.6    0.00     345    43.8
 344   13:10   49.0    20    2.3    16      4.5   912.6    0.00     369    44.1
 344   13:20   49.4    20    1.9   360      4.3   912.8    0.00     234    44.3
 344   13:30   50.6    19    2.1    12      4.5   912.9    0.00     393    44.5
 344   13:40   51.1    18    2.5    36      5.1   913.0    0.00     416    44.8
 344   13:50   50.8    19    2.9    84      5.0   912.9    0.00     339    45.0
 344   14:00   51.1    18    2.8    99      6.9   913.0    0.00     426    45.2
 344   14:10   51.3    18    3.3   100      6.4   912.7    0.00     280    45.5
 344   14:20   51.3    18    2.5    78      5.6   912.9    0.00     291    45.7
 344   14:30   51.4    19    1.4    71      3.3   912.8    0.00     241    46.0
 344   14:40   51.7    19    1.4    85      3.3   912.6    0.00     142    46.2
 344   14:50   51.0    20    1.5    77      3.4   912.5    0.00      99    46.4
 344   15:00   51.3    20    1.5    91      2.7   912.4    0.00     164    46.7
 344   15:10   51.4    19    1.8   105      3.4   912.3    0.00     148    46.9
 344   15:20   52.1    19    2.2   101      3.5   912.2    0.00     211    47.0
 344   15:30   52.6    19    1.4    88      3.8   912.2    0.00     172    47.1
 344   15:40   52.2    20    1.5    98      3.1   912.4    0.00     114    47.2
 344   15:50   51.6    21    1.4   107      3.4   911.9    0.00      76    47.2
 344   16:00   50.6    22    0.4    87      2.5   911.9    0.00      25    47.3
 344   16:10   49.7    24    0.0     0      0.0   911.4    0.00      18    47.3
 344   16:20   48.5    25    0.0     0      0.0   911.3    0.00      12    47.3
 344   16:30   47.2    28    0.0     0      0.0   911.1    0.00       3    47.3
 344   16:40   46.0    29    0.0     0      0.0   911.1    0.00       1    47.2
 344   16:50   45.2    31    0.0     0      0.0   910.8    0.00       0    47.2
 344   17:00   44.8    30    0.1   187      0.9   910.9    0.00       0    47.1
 344   17:10   44.0    31    0.0     0      0.0   910.5    0.00       0    47.0
 344   17:20   43.3    32    0.2   196      0.9   910.9    0.00       0    46.9
 344   17:30   42.7    32    0.7   210      1.5   910.5    0.00       0    46.7
 344   17:40   41.5    34    0.0   159      0.5   910.1    0.00       0    46.6
 344   17:50   41.0    35    0.0   162      0.5   909.8    0.00       0    46.5
 344   18:00   41.1    34    0.2   165      0.9   910.3    0.00       0    46.4
 344   18:10   41.1    34    0.0     0      0.0   909.5    0.00       0    46.3
 344   18:20   42.0    33    0.3   224      0.9   909.9    0.00       0    46.1
 344   18:30   41.1    34    1.3   288      2.8   910.1    0.00       0    46.0
 344   18:40   40.0    34    1.1   222      2.8   910.4    0.00       0    45.8
 344   18:50   39.9    36    0.9   232      1.7   910.6    0.00       0    45.7
 344   19:00   39.8    36    0.7   234      1.5   909.9    0.00       0    45.6
 344   19:10   39.2    36    1.3   232      2.0   909.9    0.00       0    45.5
 344   19:20   38.5    37    0.3   237      1.5   909.1    0.00       0    45.4
 344   19:30   38.2    37    0.4   253      1.7   909.5    0.00       0    45.2
 344   19:40   37.6    39    0.6   210      1.6   910.0    0.00       0    45.1
 344   19:50   37.4    38    1.6   249      2.6   909.8    0.00       0    45.0
 344   20:00   37.6    37    1.7   241      2.7   909.8    0.00       0    44.9
 344   20:10   36.4    40    2.1   235      3.4   909.9    0.00       0    44.7
 344   20:20   36.2    40    1.8   232      3.1   909.9    0.00       0    44.6
 344   20:30   35.9    41    0.7   215      1.7   909.9    0.00       0    44.5
 344   20:40   34.6    45    1.2    92      2.4   909.9    0.00       0    44.4
 344   20:50   33.9    48    0.3   143      1.1   909.8    0.00       0    44.3
 344   21:00   34.4    49    0.6    86      1.6   909.7    0.00       0    44.2
 344   21:10   34.3    49    0.1     4      0.9   909.9    0.00       0    44.0
 344   21:20   34.6    50    0.4   291      2.3   909.8    0.00       0    43.9
 344   21:30   34.5    49    1.1   258      2.8   909.7    0.00       0    43.8
 344   21:40   34.0    47    2.3   226      3.6   909.7    0.00       0    43.7
 344   21:50   34.9    44    2.8   228      4.5   909.8    0.00       0    43.6
 344   22:00   34.2    46    3.1   237      4.2   909.8    0.00       0    43.4
 344   22:10   34.3    46    2.2   239      4.1   909.6    0.00       0    43.3
 344   22:20   35.1    44    1.5   234      2.6   909.7    0.00       0    43.2
 344   22:30   33.7    47    0.4   194      1.5   909.6    0.00       0    43.1
 344   22:40   33.4    48    1.4   224      2.6   909.5    0.00       0    43.0
 344   22:50   33.6    48    1.3   227      1.9   909.2    0.00       0    42.9
 344   23:00   33.3    48    1.4   236      2.3   909.4    0.00       0    42.8
 344   23:10   33.8    47    0.9   241      1.6   909.2    0.00       0    42.7
 344   23:20   33.5    49    0.4   206      1.7   909.5    0.00       0    42.6
 344   23:30   32.2    51    0.3   189      1.3   908.9    0.00       0    42.5
 344   23:40   31.4    53    0.2   167      0.9   908.9    0.00       0    42.4
 344   23:50   31.4    53    0.1   167      0.7   908.9    0.00       0    42.4
 345    0:00   31.1    55    0.9    61      2.1   908.8    0.00       0    42.2
 345    0:10   30.5    56    0.3   120      1.2   908.8    0.00       0    42.1
 345    0:20   30.4    57    0.5   239      1.5   908.9    0.00       0    42.0
 345    0:30   30.8    57    1.0   217      1.8   909.0    0.00       0    41.9
 345    0:40   30.9    57    0.8   214      1.7   908.8    0.00       0    41.8
 345    0:50   31.0    57    0.1   183      1.2   908.5    0.00       0    41.7
 345    1:00   30.7    56    0.1   138      0.9   908.5    0.00       0    41.6
 345    1:10   30.8    57    0.0     0      0.0   908.1    0.00       0    41.6
 345    1:20   31.0    57    0.0   193      0.7   908.5    0.00       0    41.5
 345    1:30   31.7    56    0.9   261      2.7   908.4    0.00       0    41.4
 345    1:40   31.6    56    0.8   284      1.5   908.5    0.00       0    41.3
 345    1:50   32.2    56    0.8   275      2.3   908.6    0.00       0    41.2
 345    2:00   32.2    55    1.6   270      4.6   908.6    0.00       0    41.1
 345    2:10   32.2    56    0.9   221      2.1   908.3    0.00       0    41.1
 345    2:20   32.0    56    0.3   214      1.1   908.3    0.00       0    41.0
 345    2:30   32.1    56    0.6   214      1.2   908.1    0.00       0    40.9
 345    2:40   32.4    55    0.6   216      1.2   907.9    0.00       0    40.9
 345    2:50   32.6    54    0.0   218      0.4   908.0    0.00       0    40.8
 345    3:00   32.5    55    1.2   306      2.6   907.8    0.00       0    40.8
 345    3:10   32.0    56    0.2   120      1.4   907.6    0.00       0    40.8
 345    3:20   31.4    57    0.0     0      0.0   907.4    0.00       0    40.7
 345    3:30   31.1    58    0.1   168      0.8   907.0    0.00       0    40.7
 345    3:40   31.2    58    0.0   168      0.5   907.3    0.00       0    40.6
 345    3:50   31.1    59    0.2    33      1.4   907.0    0.00       0    40.6
 345    4:00   31.0    59    0.2    93      0.9   906.9    0.00       0    40.5
 345    4:10   31.0    59    0.2   207      1.1   906.7    0.00       0    40.5
 345    4:20   31.2    58    0.3   207      1.0   907.5    0.00       0    40.4
 345    4:30   31.5    58    0.0     0      0.0   907.3    0.00       0    40.4
 345    4:40   31.2    58    0.1   358      1.2   907.1    0.00       0    40.3
 345    4:50   31.1    58    1.0   313      2.6   906.9    0.00       0    40.3
 345    5:00   30.6    58    1.1   310      2.9   906.8    0.00       0    40.2
 345    5:10   30.5    59    0.1   176      0.7   906.2    0.00       0    40.2
 345    5:20   30.4    60    0.4   243      1.7   906.5    0.00       0    40.2
 345    5:30   30.6    61    1.4   247      3.1   906.9    0.00       0    40.1
 345    5:40   30.5    60    1.7   226      3.7   907.1    0.00       0    40.1
 345    5:50   31.6    59    1.2   254      2.3   906.8    0.00       0    40.0
 345    6:00   32.7    56    1.1   245      2.1   906.5    0.00       0    40.0
 345    6:10   31.6    59    0.9    97      1.8   906.6    0.00       0    39.9
 345    6:20   29.8    62    0.5    97      1.5   906.7    0.00       0    39.9
 345    6:30   29.5    64    0.2   189      1.7   906.5    0.00       0    39.9
 345    6:40   30.3    63    1.4   279      2.9   907.0    0.00       4    39.8
 345    6:50   30.7    62    2.1   247      3.6   906.9    0.00       4    39.8
 345    7:00   31.1    63    1.3   270      2.6   906.9    0.00       9    39.7
 345    7:10   32.2    60    0.8   279      2.3   907.1    0.00      16    39.7
 345    7:20   31.9    59    1.2   230      2.6   906.7    0.00      34    39.7
 345    7:30   32.2    59    0.5    52      1.3   907.0    0.00      61    39.6
 345    7:40   33.0    59    0.9    70      1.9   906.6    0.00      73    39.6
 345    7:50   33.3    58    0.9    76      2.0   907.1    0.00      70    39.6
 345    8:00   33.5    57    0.5    90      1.7   906.9    0.00      54    39.5
 345    8:10   33.6    57    0.7   278      1.7   907.3    0.00      71    39.5
 345    8:20   34.1    56    0.8   289      2.1   907.2    0.00      93    39.6
 345    8:30   34.3    56    1.0   237      1.8   907.3    0.00      88    39.6
 345    8:40   35.0    55    0.4    17      2.0   907.4    0.00     156    39.6
 345    8:50   36.9    52    0.9   308      1.8   907.3    0.00     267    39.6
 345    9:00   38.7    48    1.2   355      2.8   908.1    0.00     246    39.6
 345    9:10   40.1    45    1.5    23      3.6   908.4    0.00     150    39.7
 345    9:20   40.5    44    1.0    14      3.1   909.3    0.00      75    39.7
 345    9:30   42.5    42    0.7   340      2.6   909.0    0.00     160    39.8
 345    9:40   41.5    43    1.6   346      3.9   909.5    0.00     228    40.0
 345    9:50   41.2    43    1.7    25      3.1   909.4    0.00     254    40.2
 345   10:00   42.1    42    1.9    24      4.1   909.2    0.00     165    40.4
 345   10:10   42.1    41    1.7    15      3.9   909.1    0.00     124    40.7
 345   10:20   43.1    40    1.9   249      3.6   909.2    0.00      54    41.0
 345   10:30   44.4    38    1.0   236      2.6   908.9    0.00     113    41.2
 345   10:40   45.7    35    1.1   350      2.4   908.5    0.00     132    41.5
 345   10:50   46.9    33    0.7   285      2.4   908.4    0.00     138    41.7
 345   11:00   47.9    32    1.0   293      2.6   908.2    0.00     234    41.9
 345   11:10   48.5    32    1.4    16      3.8   908.1    0.00     219    42.1
 345   11:20   48.9    31    2.4    24      4.7   907.8    0.00     186    42.3
 345   11:30   49.4    30    1.8     9      4.2   907.9    0.00     314    42.5

Return to Indian Springs, Nevada graphs page.


Western Regional Climate Center,wrcc@dri.edu